Time;durP1;ratioP1;P1;durP2;ratioP2;P2;SDS_P1;SDS_P2;PMS_P1;PMS_P2;Temp;Humidity;BMP_temperature;BMP_pressure;BME280_temperature;BME280_humidity;BME280_pressure;Samples;Min_cycle;Max_cycle;Signal;HPM_P1;HPM_P2
2023/03/25 00:00:57;;;;;;;3.88;2.83;;;;;;;;;;5046422;28;20492;-86
2023/03/25 00:03:32;;;;;;;2.00;1.80;;;;;;;;;;5048004;28;20043;-86
2023/03/25 00:05:58;;;;;;;4.72;2.63;;;;;;;;;;5059699;28;20033;-86
2023/03/25 00:08:25;;;;;;;4.18;2.17;;;;;;;;;;5044324;28;20107;-86
2023/03/25 00:10:56;;;;;;;4.18;2.53;;;;;;;;;;5047559;28;20532;-86
2023/03/25 00:13:22;;;;;;;4.30;2.17;;;;;;;;;;5051151;28;20031;-85
2023/03/25 00:15:52;;;;;;;2.50;1.77;;;;;;;;;;5056280;28;20376;-86
2023/03/25 00:18:19;;;;;;;2.72;1.92;;;;;;;;;;5042064;28;20091;-85
2023/03/25 00:20:48;;;;;;;5.50;3.13;;;;;;;;;;5042258;28;20064;-85
2023/03/25 00:23:14;;;;;;;4.30;2.90;;;;;;;;;;5042010;28;20086;-85
2023/03/25 00:25:43;;;;;;;3.83;2.42;;;;;;;;;;5037393;28;20064;-85
2023/03/25 00:28:12;;;;;;;3.40;2.05;;;;;;;;;;5040493;28;20370;-85
2023/03/25 00:30:38;;;;;;;3.95;2.25;;;;;;;;;;5039194;28;20021;-85
2023/03/25 00:33:04;;;;;;;2.88;2.10;;;;;;;;;;5048757;28;20529;-86
2023/03/25 00:35:29;;;;;;;10.32;2.25;;;;;;;;;;5039750;28;20067;-85
2023/03/25 00:38:01;;;;;;;4.10;2.70;;;;;;;;;;5039002;28;20127;-87
2023/03/25 00:40:29;;;;;;;6.15;2.63;;;;;;;;;;5039556;28;20466;-87
2023/03/25 00:42:55;;;;;;;4.30;2.75;;;;;;;;;;5040819;28;20087;-87
2023/03/25 00:45:21;;;;;;;3.83;3.22;;;;;;;;;;5042363;28;20037;-87
2023/03/25 00:47:46;;;;;;;4.15;3.08;;;;;;;;;;5038805;28;20032;-86
2023/03/25 00:50:12;;;;;;;4.43;2.92;;;;;;;;;;5040780;28;20061;-87
2023/03/25 00:52:37;;;;;;;5.47;2.33;;;;;;;;;;5058912;28;20040;-86
2023/03/25 00:55:04;;;;;;;5.32;2.88;;;;;;;;;;5044613;28;20089;-85
2023/03/25 00:57:29;;;;;;;5.18;2.70;;;;;;;;;;5034999;28;20021;-86
2023/03/25 00:59:55;;;;;;;4.65;2.42;;;;;;;;;;5042842;28;20103;-87
2023/03/25 01:02:22;;;;;;;6.82;3.40;;;;;;;;;;5042253;28;20378;-86
2023/03/25 01:04:48;;;;;;;7.03;3.20;;;;;;;;;;5044888;28;20041;-85
2023/03/25 01:07:19;;;;;;;5.90;2.85;;;;;;;;;;5038177;28;20048;-86
2023/03/25 01:09:46;;;;;;;7.50;3.45;;;;;;;;;;5042591;28;20040;-86
2023/03/25 01:12:12;;;;;;;3.15;2.50;;;;;;;;;;5039344;28;20055;-85
2023/03/25 01:14:38;;;;;;;9.25;4.32;;;;;;;;;;5040087;28;20040;-86
2023/03/25 01:17:03;;;;;;;5.80;3.38;;;;;;;;;;5033440;28;20030;-86
2023/03/25 01:19:29;;;;;;;6.13;3.03;;;;;;;;;;5043079;28;20536;-86
2023/03/25 01:21:55;;;;;;;7.35;3.22;;;;;;;;;;5040962;28;20087;-86
2023/03/25 01:24:20;;;;;;;5.15;2.60;;;;;;;;;;5035307;28;20060;-86
2023/03/25 01:26:46;;;;;;;4.85;2.90;;;;;;;;;;5041071;28;20101;-85
2023/03/25 01:29:13;;;;;;;11.85;2.00;;;;;;;;;;5041494;28;20075;-86
2023/03/25 01:31:38;;;;;;;5.03;2.65;;;;;;;;;;5043468;28;20033;-86
2023/03/25 01:34:04;;;;;;;4.88;2.33;;;;;;;;;;5048633;28;20063;-86
2023/03/25 01:36:30;;;;;;;8.50;3.15;;;;;;;;;;5036506;28;20029;-86
2023/03/25 01:38:57;;;;;;;4.57;2.53;;;;;;;;;;5042245;28;20037;-86
2023/03/25 01:41:24;;;;;;;6.03;3.63;;;;;;;;;;5038998;28;20786;-86
2023/03/25 01:44:03;;;;;;;7.03;3.22;;;;;;;;;;5035138;28;20091;-85
2023/03/25 01:46:29;;;;;;;12.52;5.32;;;;;;;;;;5052496;28;20033;-86
2023/03/25 01:48:55;;;;;;;4.43;2.58;;;;;;;;;;5033413;28;20036;-86
2023/03/25 01:51:26;;;;;;;4.03;2.90;;;;;;;;;;5033700;28;20070;-86
2023/03/25 01:53:52;;;;;;;6.15;3.33;;;;;;;;;;5035406;28;20550;-85
2023/03/25 01:56:22;;;;;;;5.60;2.22;;;;;;;;;;5038367;28;20053;-85
2023/03/25 01:58:50;;;;;;;3.40;2.92;;;;;;;;;;5036813;28;20036;-85
2023/03/25 02:01:20;;;;;;;6.00;2.00;;;;;;;;;;5035787;28;20065;-86
2023/03/25 02:03:49;;;;;;;2.60;2.13;;;;;;;;;;5037503;28;20037;-85
2023/03/25 02:06:19;;;;;;;4.33;3.00;;;;;;;;;;5054189;28;20034;-87
2023/03/25 02:08:45;;;;;;;;;;;;;;;;;;5041293;28;20333;-85
2023/03/25 02:11:11;;;;;;;4.45;3.08;;;;;;;;;;5037945;28;20334;-86
2023/03/25 02:13:39;;;;;;;3.42;2.78;;;;;;;;;;5042649;28;20021;-85
2023/03/25 02:16:19;;;;;;;7.13;3.28;;;;;;;;;;5039326;28;20033;-86
2023/03/25 02:19:00;;;;;;;4.57;2.15;;;;;;;;;;5038629;28;20068;-85
2023/03/25 02:22:02;;;;;;;7.47;3.13;;;;;;;;;;5040387;28;20041;-86
2023/03/25 02:25:07;;;;;;;5.53;3.42;;;;;;;;;;5044660;28;20048;-86
2023/03/25 02:27:45;;;;;;;6.82;2.50;;;;;;;;;;5041529;28;20032;-86
2023/03/25 02:30:29;;;;;;;5.10;2.90;;;;;;;;;;5037516;28;20465;-86
2023/03/25 02:33:19;;;;;;;3.83;2.88;;;;;;;;;;5041604;28;20033;-85
2023/03/25 02:36:41;;;;;;;4.00;2.35;;;;;;;;;;5042548;28;20036;-86
2023/03/25 02:39:46;;;;;;;3.80;2.72;;;;;;;;;;5026165;28;20038;-87
2023/03/25 02:42:14;;;;;;;10.00;3.42;;;;;;;;;;4971833;28;20091;-84
2023/03/25 02:44:42;;;;;;;4.70;2.38;;;;;;;;;;5034515;28;20432;-85
2023/03/25 02:47:11;;;;;;;5.45;2.17;;;;;;;;;;5044843;28;20033;-86
2023/03/25 02:49:46;;;;;;;8.00;2.90;;;;;;;;;;5040316;28;20024;-85
2023/03/25 02:52:27;;;;;;;8.63;3.60;;;;;;;;;;5043777;28;20420;-85
2023/03/25 02:54:56;;;;;;;4.53;2.50;;;;;;;;;;5043870;28;20020;-85
2023/03/25 02:57:27;;;;;;;4.43;2.58;;;;;;;;;;5047405;28;20029;-85
2023/03/25 02:59:54;;;;;;;4.00;2.72;;;;;;;;;;5046423;28;20025;-84
2023/03/25 03:02:24;;;;;;;4.28;2.33;;;;;;;;;;5043732;28;20537;-84
2023/03/25 03:04:55;;;;;;;3.20;2.90;;;;;;;;;;5044788;28;20096;-85
2023/03/25 03:07:31;;;;;;;2.03;1.73;;;;;;;;;;5046099;28;20025;-85
2023/03/25 03:10:06;;;;;;;5.13;2.55;;;;;;;;;;5041469;28;20512;-86
2023/03/25 03:12:52;;;;;;;4.70;2.75;;;;;;;;;;5042536;28;20382;-85
2023/03/25 03:15:53;;;;;;;3.67;1.75;;;;;;;;;;5041450;28;20052;-85
2023/03/25 03:18:43;;;;;;;6.90;3.53;;;;;;;;;;5039606;28;20033;-85
2023/03/25 03:21:22;;;;;;;7.60;3.35;;;;;;;;;;5044424;28;20033;-85
2023/03/25 03:24:11;;;;;;;2.88;2.45;;;;;;;;;;5039353;28;20033;-85
2023/03/25 03:26:45;;;;;;;4.78;3.58;;;;;;;;;;5037526;28;20616;-85
2023/03/25 03:29:18;;;;;;;10.20;2.70;;;;;;;;;;5042420;28;20037;-86
2023/03/25 03:31:58;;;;;;;7.40;3.00;;;;;;;;;;5046662;28;20031;-86
2023/03/25 03:34:52;;;;;;;;;;;;;;;;;;5044113;28;20025;-85
2023/03/25 03:37:30;;;;;;;8.52;2.58;;;;;;;;;;5035877;28;19913;-85
2023/03/25 03:39:57;;;;;;;11.90;2.95;;;;;;;;;;5039243;28;20025;-85
2023/03/25 03:42:25;;;;;;;6.55;3.35;;;;;;;;;;5045261;28;20029;-85
2023/03/25 03:44:55;;;;;;;7.88;3.35;;;;;;;;;;5042903;28;20572;-86
2023/03/25 03:47:25;;;;;;;5.65;3.20;;;;;;;;;;5045737;28;20031;-86
2023/03/25 03:50:08;;;;;;;7.18;3.67;;;;;;;;;;5040708;28;20086;-85
2023/03/25 03:52:39;;;;;;;5.53;2.47;;;;;;;;;;5041532;28;20083;-84
2023/03/25 03:55:09;;;;;;;9.38;3.58;;;;;;;;;;5044317;28;20029;-85
2023/03/25 03:58:01;;;;;;;4.82;2.03;;;;;;;;;;5039210;28;20021;-86
2023/03/25 04:00:48;;;;;;;6.45;2.97;;;;;;;;;;5044175;28;20041;-85
2023/03/25 04:03:23;;;;;;;7.07;3.95;;;;;;;;;;5043433;28;20041;-85
2023/03/25 04:05:54;;;;;;;5.63;2.83;;;;;;;;;;5057877;28;20048;-84
2023/03/25 04:08:57;;;;;;;5.43;2.97;;;;;;;;;;5038919;28;20048;-85
2023/03/25 04:11:30;;;;;;;6.93;3.08;;;;;;;;;;5031617;28;20033;-85
2023/03/25 04:13:59;;;;;;;4.00;2.95;;;;;;;;;;5039158;28;20060;-84
2023/03/25 04:16:24;;;;;;;8.88;3.08;;;;;;;;;;5042959;28;20026;-84
2023/03/25 04:18:52;;;;;;;4.75;2.70;;;;;;;;;;5035799;28;20535;-85
2023/03/25 04:21:19;;;;;;;5.15;3.05;;;;;;;;;;5039414;28;20040;-85
2023/03/25 04:23:45;;;;;;;3.53;2.58;;;;;;;;;;5041597;28;20070;-85
2023/03/25 04:26:12;;;;;;;3.85;2.25;;;;;;;;;;5041662;28;20048;-84
2023/03/25 04:28:40;;;;;;;4.05;2.65;;;;;;;;;;5038305;28;20048;-84
2023/03/25 04:31:14;;;;;;;4.45;3.20;;;;;;;;;;5043447;28;20025;-83
2023/03/25 04:33:40;;;;;;;3.13;2.38;;;;;;;;;;5041507;28;20085;-84
2023/03/25 04:36:06;;;;;;;3.42;2.40;;;;;;;;;;5036622;28;20025;-85
2023/03/25 04:38:31;;;;;;;5.25;3.28;;;;;;;;;;5045027;28;20021;-85
2023/03/25 04:40:57;;;;;;;3.72;2.40;;;;;;;;;;5039719;28;20060;-84
2023/03/25 04:43:22;;;;;;;6.70;3.40;;;;;;;;;;5037237;28;20469;-85
2023/03/25 04:45:52;;;;;;;24.40;4.18;;;;;;;;;;5044973;28;20040;-84
2023/03/25 04:48:25;;;;;;;4.03;2.67;;;;;;;;;;5040450;28;20086;-85
2023/03/25 04:50:50;;;;;;;3.30;2.45;;;;;;;;;;5036501;28;20085;-85
2023/03/25 04:53:16;;;;;;;4.00;3.00;;;;;;;;;;5040768;28;20473;-85
2023/03/25 04:55:46;;;;;;;3.40;2.17;;;;;;;;;;5040945;28;20479;-85
2023/03/25 04:58:13;;;;;;;3.88;1.77;;;;;;;;;;5041372;28;20046;-85
2023/03/25 05:00:39;;;;;;;4.60;2.65;;;;;;;;;;5038907;28;20036;-85
2023/03/25 05:03:05;;;;;;;3.70;2.67;;;;;;;;;;5038719;28;20043;-85
2023/03/25 05:05:30;;;;;;;5.55;2.58;;;;;;;;;;5037578;28;20151;-86
2023/03/25 05:07:57;;;;;;;4.75;2.65;;;;;;;;;;5041313;28;20823;-84
2023/03/25 05:10:25;;;;;;;4.78;2.67;;;;;;;;;;5038636;28;20020;-85
2023/03/25 05:13:06;;;;;;;4.18;2.97;;;;;;;;;;5043145;28;20029;-86
2023/03/25 05:15:38;;;;;;;4.22;2.83;;;;;;;;;;5038800;28;20108;-86
2023/03/25 05:18:13;;;;;;;5.82;3.40;;;;;;;;;;5054446;28;20029;-85
2023/03/25 05:20:41;;;;;;;6.78;3.10;;;;;;;;;;5056716;28;20116;-85
2023/03/25 05:23:16;;;;;;;5.97;3.08;;;;;;;;;;5038273;28;20424;-85
2023/03/25 05:25:43;;;;;;;7.45;3.35;;;;;;;;;;5046777;28;20112;-86
2023/03/25 05:28:12;;;;;;;6.57;3.22;;;;;;;;;;5042121;28;20496;-84
2023/03/25 05:30:44;;;;;;;5.63;2.40;;;;;;;;;;5038232;28;20033;-86
2023/03/25 05:33:15;;;;;;;6.95;3.95;;;;;;;;;;5038695;28;20041;-85
2023/03/25 05:35:41;;;;;;;7.13;3.83;;;;;;;;;;5036913;28;20444;-79
2023/03/25 05:38:08;;;;;;;5.88;3.15;;;;;;;;;;5037549;28;20067;-81
2023/03/25 05:40:34;;;;;;;5.65;3.60;;;;;;;;;;5029395;28;20051;-81
2023/03/25 05:43:01;;;;;;;5.50;3.00;;;;;;;;;;5038011;28;20052;-80
2023/03/25 05:45:27;;;;;;;5.35;3.05;;;;;;;;;;5027844;28;20026;-80
2023/03/25 05:47:53;;;;;;;5.00;2.85;;;;;;;;;;5035809;28;20029;-81
2023/03/25 05:50:19;;;;;;;4.95;2.63;;;;;;;;;;5034069;28;20405;-85
2023/03/25 05:52:48;;;;;;;5.40;3.15;;;;;;;;;;5035239;28;20025;-80
2023/03/25 05:55:16;;;;;;;7.38;2.90;;;;;;;;;;5028157;28;20512;-82
2023/03/25 05:57:42;;;;;;;4.80;2.58;;;;;;;;;;5036217;28;20041;-80
2023/03/25 06:00:09;;;;;;;8.38;3.92;;;;;;;;;;5031484;28;20045;-80
2023/03/25 06:02:37;;;;;;;5.50;3.33;;;;;;;;;;5030865;28;20049;-81
2023/03/25 06:05:04;;;;;;;5.45;2.83;;;;;;;;;;5039563;28;20037;-81
2023/03/25 06:07:31;;;;;;;6.65;3.55;;;;;;;;;;5036916;28;20025;-81
2023/03/25 06:09:57;;;;;;;6.55;2.55;;;;;;;;;;5052448;28;20120;-81
2023/03/25 06:12:26;;;;;;;5.00;3.25;;;;;;;;;;5042838;28;20108;-82
2023/03/25 06:14:52;;;;;;;5.38;2.67;;;;;;;;;;5035668;28;20025;-81
2023/03/25 06:17:20;;;;;;;4.07;2.00;;;;;;;;;;5039929;28;20060;-80
2023/03/25 06:19:47;;;;;;;2.47;2.17;;;;;;;;;;5037742;28;20037;-80
2023/03/25 06:22:12;;;;;;;7.78;4.00;;;;;;;;;;5033483;28;20029;-81
2023/03/25 06:24:39;;;;;;;6.28;3.67;;;;;;;;;;5034049;28;20105;-81
2023/03/25 06:27:06;;;;;;;4.97;2.42;;;;;;;;;;5042337;28;20377;-81
2023/03/25 06:29:37;;;;;;;3.90;2.28;;;;;;;;;;5037829;28;20067;-81
2023/03/25 06:32:08;;;;;;;4.60;2.90;;;;;;;;;;5037947;28;20034;-81
2023/03/25 06:34:34;;;;;;;6.00;3.28;;;;;;;;;;5035469;28;20025;-81
2023/03/25 06:37:02;;;;;;;4.50;2.53;;;;;;;;;;5051922;28;20072;-82
2023/03/25 06:39:32;;;;;;;5.38;2.53;;;;;;;;;;5045865;28;20454;-81
2023/03/25 06:41:58;;;;;;;5.32;2.20;;;;;;;;;;5054567;28;20033;-81
2023/03/25 06:44:24;;;;;;;4.18;2.25;;;;;;;;;;5044348;28;20029;-81
2023/03/25 06:46:50;;;;;;;4.10;2.55;;;;;;;;;;5038595;28;20037;-81
2023/03/25 06:49:15;;;;;;;4.05;2.47;;;;;;;;;;5039689;28;20017;-82
2023/03/25 06:51:41;;;;;;;6.75;3.22;;;;;;;;;;5037314;28;20029;-82
2023/03/25 06:54:06;;;;;;;4.82;2.60;;;;;;;;;;5038124;28;20066;-80
2023/03/25 06:56:32;;;;;;;6.93;3.35;;;;;;;;;;5037809;28;20021;-81
2023/03/25 06:58:57;;;;;;;5.03;2.50;;;;;;;;;;5043677;28;20029;-81
2023/03/25 07:01:23;;;;;;;3.95;2.45;;;;;;;;;;5035557;28;20033;-82
2023/03/25 07:03:49;;;;;;;8.75;3.42;;;;;;;;;;5035413;28;20033;-81
2023/03/25 07:06:20;;;;;;;7.35;3.90;;;;;;;;;;5043826;28;20032;-81
2023/03/25 07:08:46;;;;;;;7.15;2.85;;;;;;;;;;5036151;28;20714;-82
2023/03/25 07:11:13;;;;;;;7.97;3.63;;;;;;;;;;5039134;28;20044;-82
2023/03/25 07:13:39;;;;;;;3.10;2.13;;;;;;;;;;5038448;28;20100;-81
2023/03/25 07:16:06;;;;;;;4.25;1.92;;;;;;;;;;5037710;28;20159;-83
2023/03/25 07:18:31;;;;;;;3.72;2.03;;;;;;;;;;5039545;28;20492;-84
2023/03/25 07:20:56;;;;;;;3.67;2.55;;;;;;;;;;5038991;28;20029;-84
2023/03/25 07:23:22;;;;;;;5.55;3.28;;;;;;;;;;5033897;28;20099;-85
2023/03/25 07:25:47;;;;;;;5.03;3.35;;;;;;;;;;5035049;28;20021;-84
2023/03/25 07:28:13;;;;;;;6.63;3.40;;;;;;;;;;5036859;28;20025;-84
2023/03/25 07:30:39;;;;;;;4.93;2.47;;;;;;;;;;5043409;28;20029;-84
2023/03/25 07:33:04;;;;;;;4.93;2.42;;;;;;;;;;5039214;28;20026;-83
2023/03/25 07:35:30;;;;;;;6.35;3.33;;;;;;;;;;5039111;28;20036;-83
2023/03/25 07:37:56;;;;;;;4.45;2.65;;;;;;;;;;5038233;28;20075;-84
2023/03/25 07:40:21;;;;;;;10.63;3.85;;;;;;;;;;5037088;28;20033;-84
2023/03/25 07:42:47;;;;;;;4.00;2.42;;;;;;;;;;5035228;28;20037;-84
2023/03/25 07:45:12;;;;;;;5.93;4.00;;;;;;;;;;5043787;28;20031;-83
2023/03/25 07:47:37;;;;;;;5.20;3.83;;;;;;;;;;5041139;28;20373;-84
2023/03/25 07:50:04;;;;;;;6.18;3.17;;;;;;;;;;5033722;28;20492;-85
2023/03/25 07:52:29;;;;;;;4.03;2.50;;;;;;;;;;5036714;28;20051;-84
2023/03/25 07:54:54;;;;;;;3.47;2.95;;;;;;;;;;5032336;28;20034;-83
2023/03/25 07:57:20;;;;;;;7.93;2.92;;;;;;;;;;5039447;28;20028;-83
2023/03/25 07:59:45;;;;;;;5.25;2.97;;;;;;;;;;5043458;28;20083;-84
2023/03/25 08:02:12;;;;;;;5.18;2.88;;;;;;;;;;5044855;28;20520;-84
2023/03/25 08:04:37;;;;;;;6.35;2.78;;;;;;;;;;5039243;28;20420;-85
2023/03/25 08:07:03;;;;;;;5.78;2.95;;;;;;;;;;5039631;28;20033;-81
2023/03/25 08:09:28;;;;;;;4.07;2.92;;;;;;;;;;5033286;28;20030;-82
2023/03/25 08:11:54;;;;;;;5.22;2.83;;;;;;;;;;5036787;28;20031;-80
2023/03/25 08:14:19;;;;;;;5.35;3.33;;;;;;;;;;5035217;28;20029;-80
2023/03/25 08:16:45;;;;;;;10.88;4.43;;;;;;;;;;5035784;28;20083;-80
2023/03/25 08:19:10;;;;;;;5.20;2.85;;;;;;;;;;5034317;28;20029;-80
2023/03/25 08:21:36;;;;;;;8.75;4.30;;;;;;;;;;5039286;28;20472;-81
2023/03/25 08:24:03;;;;;;;10.43;4.10;;;;;;;;;;5032825;28;20049;-82
2023/03/25 08:26:30;;;;;;;7.13;3.55;;;;;;;;;;5025782;28;20120;-80
2023/03/25 08:28:56;;;;;;;3.83;2.40;;;;;;;;;;5032072;28;20027;-80
2023/03/25 08:31:29;;;;;;;6.20;3.13;;;;;;;;;;5035821;28;20465;-80
2023/03/25 08:33:56;;;;;;;4.90;2.67;;;;;;;;;;5031453;28;20087;-80
2023/03/25 08:36:22;;;;;;;7.05;3.13;;;;;;;;;;5032243;28;20049;-81
2023/03/25 08:38:51;;;;;;;5.68;2.65;;;;;;;;;;5038167;28;20476;-80
2023/03/25 08:41:17;;;;;;;6.03;3.60;;;;;;;;;;5037966;28;20088;-81
2023/03/25 08:43:42;;;;;;;4.47;2.92;;;;;;;;;;5036806;28;20033;-80
2023/03/25 08:46:08;;;;;;;8.75;4.07;;;;;;;;;;5029191;28;20143;-81
2023/03/25 08:48:33;;;;;;;6.85;3.83;;;;;;;;;;5037498;28;20437;-81
2023/03/25 08:50:59;;;;;;;5.40;3.03;;;;;;;;;;5038536;28;20032;-81
2023/03/25 08:53:25;;;;;;;9.00;3.90;;;;;;;;;;5036170;28;20033;-81
2023/03/25 08:55:55;;;;;;;10.40;4.80;;;;;;;;;;5038727;28;20108;-80
2023/03/25 08:58:21;;;;;;;;;;;;;;;;;;5037536;28;20025;-80
2023/03/25 09:00:47;;;;;;;7.22;3.55;;;;;;;;;;5040194;28;19917;-80
2023/03/25 09:03:12;;;;;;;11.32;4.65;;;;;;;;;;5036789;28;20505;-81
2023/03/25 09:05:38;;;;;;;11.82;4.10;;;;;;;;;;5032732;28;20091;-80
2023/03/25 09:08:04;;;;;;;8.63;3.90;;;;;;;;;;5045761;28;20137;-81
2023/03/25 09:10:30;;;;;;;6.22;3.80;;;;;;;;;;5041649;28;20029;-80
2023/03/25 09:12:56;;;;;;;6.70;3.13;;;;;;;;;;5044771;28;20035;-81
2023/03/25 09:15:21;;;;;;;8.77;3.70;;;;;;;;;;5037527;28;20044;-81
2023/03/25 09:17:47;;;;;;;12.60;5.05;;;;;;;;;;5040384;28;20027;-81
2023/03/25 09:20:13;;;;;;;4.80;3.50;;;;;;;;;;5021629;28;20032;-80
2023/03/25 09:22:39;;;;;;;6.57;4.72;;;;;;;;;;5033467;28;20140;-80
2023/03/25 09:25:05;;;;;;;6.07;3.40;;;;;;;;;;5037104;28;20037;-80
2023/03/25 09:27:31;;;;;;;6.97;3.72;;;;;;;;;;5034592;28;20120;-81
2023/03/25 09:29:57;;;;;;;8.48;3.38;;;;;;;;;;5038618;28;20026;-82
2023/03/25 09:32:23;;;;;;;8.00;4.07;;;;;;;;;;5037899;28;20045;-80
2023/03/25 09:34:48;;;;;;;7.38;3.33;;;;;;;;;;5036067;28;20392;-81
2023/03/25 09:37:14;;;;;;;8.10;4.75;;;;;;;;;;5033570;28;20087;-80
2023/03/25 09:39:39;;;;;;;9.13;5.10;;;;;;;;;;5039404;28;20025;-81
2023/03/25 09:42:24;;;;;;;14.85;4.32;;;;;;;;;;5040705;28;20037;-80
2023/03/25 09:45:14;;;;;;;7.43;4.38;;;;;;;;;;5037821;28;20108;-81
2023/03/25 09:48:14;;;;;;;5.75;3.67;;;;;;;;;;5041454;28;20026;-80
2023/03/25 09:50:42;;;;;;;7.95;4.65;;;;;;;;;;5039178;28;20033;-78
2023/03/25 09:53:22;;;;;;;13.05;6.35;;;;;;;;;;5038275;28;20028;-78
2023/03/25 09:55:49;;;;;;;8.38;4.53;;;;;;;;;;5038769;28;20104;-77
2023/03/25 09:58:20;;;;;;;7.72;4.50;;;;;;;;;;5032739;28;20107;-77
2023/03/25 10:00:52;;;;;;;6.97;4.30;;;;;;;;;;5037469;28;20037;-79
2023/03/25 10:03:27;;;;;;;10.32;5.15;;;;;;;;;;5034455;28;20053;-78
2023/03/25 10:06:12;;;;;;;8.82;4.90;;;;;;;;;;5036478;28;20500;-84
2023/03/25 10:08:57;;;;;;;7.50;4.22;;;;;;;;;;5031128;28;20446;-79
2023/03/25 10:11:34;;;;;;;9.32;4.35;;;;;;;;;;5053969;28;20041;-77
2023/03/25 10:14:00;;;;;;;9.40;5.20;;;;;;;;;;5040836;28;20036;-78
2023/03/25 10:16:32;;;;;;;12.02;6.68;;;;;;;;;;5035240;28;20033;-79
2023/03/25 10:19:24;;;;;;;7.93;4.75;;;;;;;;;;5041749;28;20079;-77
2023/03/25 10:22:00;;;;;;;9.07;4.22;;;;;;;;;;5044124;28;20021;-78
2023/03/25 10:24:50;;;;;;;15.43;9.13;;;;;;;;;;5032136;28;20052;-77
2023/03/25 10:27:31;;;;;;;7.32;4.85;;;;;;;;;;5049930;28;20473;-77
2023/03/25 10:30:10;;;;;;;7.45;4.53;;;;;;;;;;5043548;28;20513;-78
2023/03/25 10:32:59;;;;;;;5.22;2.95;;;;;;;;;;5035603;28;20028;-79
2023/03/25 10:35:30;;;;;;;8.50;3.20;;;;;;;;;;5031162;28;20054;-78
2023/03/25 10:38:17;;;;;;;6.32;3.78;;;;;;;;;;5040168;28;20033;-79
2023/03/25 10:40:48;;;;;;;6.55;3.92;;;;;;;;;;5044867;28;20063;-79
2023/03/25 10:43:26;;;;;;;4.97;2.38;;;;;;;;;;5060397;28;20028;-81
2023/03/25 10:46:03;;;;;;;4.93;2.92;;;;;;;;;;5039205;28;20051;-84
2023/03/25 10:48:30;;;;;;;7.25;2.88;;;;;;;;;;5038382;28;20124;-81
2023/03/25 10:51:05;;;;;;;5.47;2.42;;;;;;;;;;5034959;28;20029;-82
2023/03/25 10:53:31;;;;;;;5.18;2.70;;;;;;;;;;5044896;28;20427;-83
2023/03/25 10:56:10;;;;;;;3.78;2.50;;;;;;;;;;5030052;28;20029;-83
2023/03/25 10:58:38;;;;;;;4.45;2.97;;;;;;;;;;5035368;28;20033;-81
2023/03/25 11:01:12;;;;;;;5.82;2.40;;;;;;;;;;5041301;28;20120;-79
2023/03/25 11:03:40;;;;;;;4.25;2.28;;;;;;;;;;5035168;28;20477;-82
2023/03/25 11:06:11;;;;;;;4.45;2.75;;;;;;;;;;5038002;28;20033;-81
2023/03/25 11:08:38;;;;;;;7.80;3.17;;;;;;;;;;5033795;28;20059;-81
2023/03/25 11:11:04;;;;;;;2.97;2.25;;;;;;;;;;5049882;28;20061;-81
2023/03/25 11:13:30;;;;;;;3.92;2.15;;;;;;;;;;5036116;28;20024;-81
2023/03/25 11:16:02;;;;;;;3.92;2.00;;;;;;;;;;5047871;28;20025;-82
2023/03/25 11:18:32;;;;;;;2.80;1.88;;;;;;;;;;5034839;28;20056;-82
2023/03/25 11:21:25;;;;;;;4.15;2.40;;;;;;;;;;5037488;28;20033;-81
2023/03/25 11:23:51;;;;;;;4.05;2.33;;;;;;;;;;5041111;28;20091;-82
2023/03/25 11:26:32;;;;;;;5.22;2.67;;;;;;;;;;5041222;28;20045;-83
2023/03/25 11:29:18;;;;;;;4.70;2.28;;;;;;;;;;5046209;28;20430;-81
2023/03/25 11:31:55;;;;;;;3.13;1.80;;;;;;;;;;5042589;28;20037;-83
2023/03/25 11:34:23;;;;;;;4.05;2.22;;;;;;;;;;5045585;28;20477;-82
2023/03/25 11:37:07;;;;;;;3.85;1.90;;;;;;;;;;5037419;28;20033;-81
2023/03/25 11:39:38;;;;;;;2.63;1.70;;;;;;;;;;5038777;28;20040;-83
2023/03/25 11:42:27;;;;;;;3.70;1.80;;;;;;;;;;5040159;28;20040;-81
2023/03/25 11:44:55;;;;;;;5.13;2.78;;;;;;;;;;5040914;28;20032;-83
2023/03/25 11:47:28;;;;;;;3.20;2.00;;;;;;;;;;5041896;28;20025;-83
2023/03/25 11:49:55;;;;;;;3.40;2.00;;;;;;;;;;5036557;28;20025;-81
2023/03/25 11:52:24;;;;;;;3.60;2.58;;;;;;;;;;5031207;28;20108;-82
2023/03/25 11:54:53;;;;;;;2.97;1.90;;;;;;;;;;5041315;28;20103;-82
2023/03/25 11:57:23;;;;;;;2.78;1.88;;;;;;;;;;5039857;28;20055;-83
2023/03/25 11:59:56;;;;;;;2.47;1.80;;;;;;;;;;5047180;28;20091;-81
2023/03/25 12:02:26;;;;;;;3.53;1.98;;;;;;;;;;5042504;28;20128;-82
2023/03/25 12:05:03;;;;;;;4.10;1.70;;;;;;;;;;5040682;28;20026;-82
2023/03/25 12:07:39;;;;;;;1.88;1.38;;;;;;;;;;5045649;28;20033;-82
2023/03/25 12:10:06;;;;;;;2.35;1.80;;;;;;;;;;5040971;28;20025;-82
2023/03/25 12:12:38;;;;;;;3.33;2.05;;;;;;;;;;5040203;28;20054;-81
2023/03/25 12:15:28;;;;;;;2.65;1.60;;;;;;;;;;5041862;28;20123;-82
2023/03/25 12:18:32;;;;;;;4.88;1.70;;;;;;;;;;5037633;28;20103;-83
2023/03/25 12:21:46;;;;;;;3.63;1.70;;;;;;;;;;5044698;28;20031;-82
2023/03/25 12:24:33;;;;;;;2.33;1.50;;;;;;;;;;5038834;28;20036;-83
2023/03/25 12:27:01;;;;;;;2.85;1.30;;;;;;;;;;5038738;28;20029;-82
2023/03/25 12:29:59;;;;;;;7.93;2.28;;;;;;;;;;5039002;28;20033;-83
2023/03/25 12:32:55;;;;;;;2.67;1.60;;;;;;;;;;5042754;28;20108;-80
2023/03/25 12:35:48;;;;;;;2.72;1.75;;;;;;;;;;5037534;28;20033;-83
2023/03/25 12:38:33;;;;;;;2.58;1.48;;;;;;;;;;5041543;28;20063;-84
2023/03/25 12:41:12;;;;;;;4.68;1.95;;;;;;;;;;5035215;28;20486;-82
2023/03/25 12:43:50;;;;;;;2.47;1.70;;;;;;;;;;5053055;28;20025;-82
2023/03/25 12:46:38;;;;;;;3.78;1.60;;;;;;;;;;5037831;28;20025;-83
2023/03/25 12:49:15;;;;;;;4.70;1.52;;;;;;;;;;5040339;28;20032;-84
2023/03/25 12:51:53;;;;;;;2.15;1.63;;;;;;;;;;5038975;28;20059;-82
2023/03/25 12:54:28;;;;;;;2.20;1.52;;;;;;;;;;5041240;28;20469;-83
2023/03/25 12:57:16;;;;;;;2.08;1.50;;;;;;;;;;5043520;28;20103;-82
2023/03/25 13:00:15;;;;;;;1.58;1.27;;;;;;;;;;5039833;28;20484;-83
2023/03/25 13:03:17;;;;;;;2.35;1.58;;;;;;;;;;5038344;28;20052;-82
2023/03/25 13:06:03;;;;;;;3.95;1.58;;;;;;;;;;5037150;28;20041;-82
2023/03/25 13:08:39;;;;;;;1.88;1.52;;;;;;;;;;5031733;28;20025;-82
2023/03/25 13:11:17;;;;;;;4.78;1.42;;;;;;;;;;5043915;28;20033;-84
2023/03/25 13:13:44;;;;;;;1.95;1.23;;;;;;;;;;5030715;28;20033;-83
2023/03/25 13:16:16;;;;;;;1.92;1.60;;;;;;;;;;5041107;28;20112;-83
2023/03/25 13:18:45;;;;;;;2.42;1.38;;;;;;;;;;5037347;28;20024;-82
2023/03/25 13:21:22;;;;;;;1.83;1.30;;;;;;;;;;5043163;28;20028;-82
2023/03/25 13:23:55;;;;;;;4.68;1.73;;;;;;;;;;5057920;28;20047;-83
2023/03/25 13:26:28;;;;;;;3.38;1.65;;;;;;;;;;5035989;28;20089;-82
2023/03/25 13:28:58;;;;;;;2.47;1.65;;;;;;;;;;5052983;28;20029;-82
2023/03/25 13:31:31;;;;;;;3.58;1.70;;;;;;;;;;5038038;28;20025;-82
2023/03/25 13:34:18;;;;;;;4.05;2.03;;;;;;;;;;5029960;28;20498;-83
2023/03/25 13:36:55;;;;;;;3.92;2.22;;;;;;;;;;5037100;28;20031;-82
2023/03/25 13:39:26;;;;;;;3.53;1.92;;;;;;;;;;5035482;28;20029;-82
2023/03/25 13:42:05;;;;;;;2.03;1.45;;;;;;;;;;5038754;28;20492;-83
2023/03/25 13:44:40;;;;;;;2.97;1.70;;;;;;;;;;5030704;28;20026;-82
2023/03/25 13:47:17;;;;;;;3.47;1.55;;;;;;;;;;5033014;28;20574;-83
2023/03/25 13:50:02;;;;;;;1.90;1.35;;;;;;;;;;5034947;28;20075;-83
2023/03/25 13:52:35;;;;;;;2.53;1.55;;;;;;;;;;5033758;28;20488;-83
2023/03/25 13:55:09;;;;;;;2.03;1.38;;;;;;;;;;5031001;28;20154;-83
2023/03/25 13:57:48;;;;;;;2.30;1.55;;;;;;;;;;5042901;28;20128;-83
2023/03/25 14:00:27;;;;;;;4.43;1.75;;;;;;;;;;5033616;28;20524;-83
2023/03/25 14:03:22;;;;;;;4.37;1.97;;;;;;;;;;5033667;28;20081;-83
2023/03/25 14:06:09;;;;;;;4.32;2.00;;;;;;;;;;5036948;28;20025;-88
2023/03/25 14:08:43;;;;;;;7.63;2.15;;;;;;;;;;5031479;28;20080;-83
2023/03/25 14:11:22;;;;;;;1.42;1.15;;;;;;;;;;5048341;28;20036;-82
2023/03/25 14:14:21;;;;;;;2.40;1.58;;;;;;;;;;5045932;28;20029;-81
2023/03/25 14:16:49;;;;;;;2.90;2.05;;;;;;;;;;5030245;28;20036;-83
2023/03/25 14:19:37;;;;;;;5.15;2.25;;;;;;;;;;5035431;28;20079;-83
2023/03/25 14:22:20;;;;;;;4.57;2.50;;;;;;;;;;5030920;28;20021;-81
2023/03/25 14:24:48;;;;;;;3.35;2.08;;;;;;;;;;5045898;28;20037;-83
2023/03/25 14:27:30;;;;;;;4.28;2.05;;;;;;;;;;5031371;28;20488;-82
2023/03/25 14:30:04;;;;;;;3.63;1.75;;;;;;;;;;5031590;28;20075;-83
2023/03/25 14:32:36;;;;;;;2.75;1.92;;;;;;;;;;5037877;28;20029;-84
2023/03/25 14:35:33;;;;;;;3.58;2.38;;;;;;;;;;5041582;28;20021;-81
2023/03/25 14:38:07;;;;;;;2.92;2.00;;;;;;;;;;5038358;28;20026;-82
2023/03/25 14:40:42;;;;;;;4.22;2.40;;;;;;;;;;5038358;28;20025;-81
2023/03/25 14:43:30;;;;;;;2.92;1.88;;;;;;;;;;5034576;28;20045;-81
2023/03/25 14:46:02;;;;;;;3.38;2.60;;;;;;;;;;5041184;28;20025;-81
2023/03/25 14:49:03;;;;;;;3.40;2.35;;;;;;;;;;5036106;28;20037;-81
2023/03/25 14:51:28;;;;;;;5.22;2.97;;;;;;;;;;5033458;28;20421;-80
2023/03/25 14:54:16;;;;;;;4.68;2.53;;;;;;;;;;5044188;28;20072;-80
2023/03/25 14:57:06;;;;;;;6.63;3.60;;;;;;;;;;5034011;28;20017;-80
2023/03/25 14:59:57;;;;;;;;;;;;;;;;;;5032081;28;20087;-80
2023/03/25 15:02:32;;;;;;;5.97;2.42;;;;;;;;;;5029903;28;19920;-80
2023/03/25 15:05:02;;;;;;;4.47;2.78;;;;;;;;;;5039572;28;20037;-81
2023/03/25 15:07:40;;;;;;;4.53;2.40;;;;;;;;;;5044005;28;20043;-80
2023/03/25 15:10:06;;;;;;;4.70;2.65;;;;;;;;;;5043393;28;20028;-81
2023/03/25 15:12:37;;;;;;;3.33;2.50;;;;;;;;;;5034019;28;20484;-80
2023/03/25 15:15:23;;;;;;;4.32;2.42;;;;;;;;;;5033900;28;20488;-81